createdAt,value
2019-04-03T00:00:34.512Z,36.50
2019-04-03T00:05:38.167Z,29.53
2019-04-03T00:10:41.386Z,27.83
2019-04-03T00:15:45.276Z,29.47
2019-04-03T00:20:49.277Z,26.03
2019-04-03T00:25:52.756Z,24.87
2019-04-03T00:30:57.547Z,31.40
2019-04-03T00:36:01.625Z,35.83
2019-04-03T00:41:05.174Z,27.10
2019-04-03T00:46:08.687Z,27.70
2019-04-03T00:51:11.566Z,29.63
2019-04-03T00:56:15.236Z,28.10
2019-04-03T01:01:18.766Z,35.93
2019-04-03T01:06:22.641Z,39.37
2019-04-03T01:11:30.146Z,34.50
2019-04-03T01:16:33.019Z,33.20
2019-04-03T01:21:37.651Z,32.03
2019-04-03T01:26:41.256Z,30.00
2019-04-03T01:31:44.771Z,37.93
2019-04-03T01:36:48.713Z,31.27
2019-04-03T01:41:52.090Z,34.60
2019-04-03T01:46:57.341Z,30.93
2019-04-03T01:52:00.994Z,32.10
2019-04-03T01:57:05.987Z,34.33
2019-04-03T02:02:09.427Z,37.17
2019-04-03T02:07:14.896Z,39.33
2019-04-03T02:12:19.790Z,33.33
2019-04-03T02:17:24.055Z,37.37
2019-04-03T02:22:29.316Z,33.50
2019-04-03T02:27:33.308Z,38.33
2019-04-03T02:32:37.260Z,34.90
2019-04-03T02:37:40.759Z,32.90
2019-04-03T02:42:44.003Z,39.60
2019-04-03T02:47:47.180Z,37.70
2019-04-03T02:52:51.145Z,49.23
2019-04-03T02:57:54.371Z,38.47
2019-04-03T03:02:57.069Z,41.87
2019-04-03T03:08:00.878Z,39.17
2019-04-03T03:13:03.850Z,40.13
2019-04-03T03:18:07.358Z,41.80
2019-04-03T03:23:11.626Z,39.13
2019-04-03T03:28:15.621Z,37.97
2019-04-03T03:33:32.729Z,49.53
2019-04-03T03:38:27.510Z,48.33
2019-04-03T03:43:30.157Z,45.80
2019-04-03T03:48:33.360Z,48.10
2019-04-03T03:53:37.922Z,39.53
2019-04-03T03:58:44.794Z,48.27
2019-04-03T04:03:46.820Z,43.03
2019-04-03T04:08:51.065Z,58.53
2019-04-03T04:13:54.710Z,41.83
2019-04-03T04:18:58.307Z,46.77
2019-04-03T04:24:02.577Z,47.40
2019-04-03T04:29:10.308Z,42.57
2019-04-03T04:34:12.281Z,42.93
2019-04-03T04:39:15.529Z,47.83
2019-04-03T04:44:18.750Z,45.80
2019-04-03T04:49:22.670Z,46.77
2019-04-03T04:54:26.184Z,45.73
2019-04-03T04:59:29.357Z,42.50
2019-04-03T05:04:32.839Z,46.53
2019-04-03T05:09:36.326Z,40.80
2019-04-03T05:14:39.324Z,40.80
2019-04-03T05:19:42.489Z,44.80
2019-04-03T05:24:45.973Z,39.67
2019-04-03T05:29:48.975Z,44.37
2019-04-03T05:34:52.462Z,40.97
2019-04-03T05:39:56.108Z,42.10
2019-04-03T05:44:59.582Z,39.03
2019-04-03T05:50:02.875Z,27.17
2019-04-03T05:55:06.014Z,24.53
2019-04-03T06:00:08.754Z,34.50
2019-04-03T06:05:13.171Z,32.70
2019-04-03T06:10:16.678Z,36.03
2019-04-03T06:15:21.688Z,44.38
2019-04-03T06:20:25.475Z,36.07
2019-04-03T06:25:30.037Z,41.67
2019-04-03T06:30:33.542Z,141.27
2019-04-03T06:35:37.149Z,162.37
2019-04-03T06:40:40.355Z,72.10
2019-04-03T06:45:44.530Z,47.47
2019-04-03T06:50:47.036Z,45.23
2019-04-03T06:55:50.221Z,40.47
2019-04-03T07:00:54.766Z,42.37
2019-04-03T07:05:58.556Z,37.77
2019-04-03T07:11:01.057Z,37.73
2019-04-03T07:16:03.900Z,43.00
2019-04-03T07:21:06.740Z,43.87
2019-04-03T07:26:10.548Z,41.30
2019-04-03T07:31:14.351Z,50.23
2019-04-03T07:36:17.856Z,49.13
2019-04-03T07:41:23.290Z,42.00
2019-04-03T07:46:25.789Z,40.83
2019-04-03T07:51:28.612Z,41.37
2019-04-03T07:56:31.492Z,39.57
2019-04-03T08:01:34.760Z,38.60
2019-04-03T08:06:37.390Z,37.00
2019-04-03T08:11:41.040Z,44.30
2019-04-03T08:16:47.480Z,48.73
2019-04-03T08:21:49.363Z,44.67
2019-04-03T08:26:52.730Z,43.80
2019-04-03T08:31:55.838Z,39.27
2019-04-03T08:37:01.386Z,41.37
2019-04-03T08:42:04.582Z,41.10
2019-04-03T08:47:07.935Z,35.53
2019-04-03T08:52:13.882Z,36.67
2019-04-03T08:57:19.998Z,35.20
2019-04-03T09:02:21.579Z,35.07
2019-04-03T09:07:25.545Z,36.93
2019-04-03T09:12:28.951Z,38.90
2019-04-03T09:17:34.124Z,34.67
2019-04-03T09:22:37.913Z,36.37
2019-04-03T09:27:41.395Z,38.27
2019-04-03T09:32:44.307Z,40.40
2019-04-03T09:37:47.859Z,33.37
2019-04-03T09:42:51.588Z,37.13
2019-04-03T09:47:55.709Z,42.97
2019-04-03T09:53:01.641Z,35.50
2019-04-03T09:58:04.296Z,33.00
2019-04-03T10:03:07.615Z,37.57
2019-04-03T10:08:10.885Z,30.73
2019-04-03T10:13:13.813Z,35.27
2019-04-03T10:18:17.430Z,35.03
2019-04-03T10:23:20.074Z,36.77
2019-04-03T10:28:23.187Z,43.17
2019-04-03T10:33:26.505Z,46.90
2019-04-03T10:38:29.465Z,46.27
2019-04-03T10:43:32.747Z,44.43
2019-04-03T10:48:35.803Z,52.37
2019-04-03T10:53:39.896Z,54.03
2019-04-03T10:58:43.808Z,43.17
2019-04-03T11:03:47.165Z,47.80
2019-04-03T11:08:50.183Z,52.17
2019-04-03T11:13:53.480Z,40.07
2019-04-03T11:19:00.014Z,40.83
2019-04-03T11:24:01.335Z,39.60
2019-04-03T11:29:05.099Z,36.30
2019-04-03T11:34:08.622Z,43.90
2019-04-03T11:39:15.152Z,31.77
2019-04-03T11:44:15.907Z,34.27
2019-04-03T11:49:19.993Z,41.00
2019-04-03T11:54:24.322Z,40.13
2019-04-03T11:59:27.568Z,44.63
2019-04-03T12:04:30.710Z,41.23
2019-04-03T12:09:33.880Z,45.50
2019-04-03T12:14:37.464Z,36.17
2019-04-03T12:19:40.627Z,33.43
2019-04-03T12:24:44.059Z,33.37
2019-04-03T12:29:47.049Z,38.33
2019-04-03T12:34:50.962Z,33.00
2019-04-03T12:39:53.503Z,38.20
2019-04-03T12:44:56.687Z,39.00
2019-04-03T12:50:00.198Z,36.50
2019-04-03T12:55:04.234Z,42.23
2019-04-03T13:00:12.768Z,41.57
2019-04-03T13:05:16.751Z,36.73
2019-04-03T13:10:21.269Z,31.37
2019-04-03T13:15:24.864Z,33.70
2019-04-03T13:20:28.020Z,31.70
2019-04-03T13:25:31.413Z,36.53
2019-04-03T13:30:34.789Z,38.57
2019-04-03T13:35:38.307Z,35.60
2019-04-03T13:40:40.795Z,37.00
2019-04-03T13:45:43.614Z,43.33
2019-04-03T13:50:46.727Z,43.80
2019-04-03T13:55:49.985Z,31.83
2019-04-03T14:01:00.914Z,37.60
2019-04-03T14:05:58.274Z,39.27
2019-04-03T14:11:02.717Z,45.10
2019-04-03T14:16:18.975Z,38.63
2019-04-03T14:21:11.135Z,39.83
2019-04-03T14:26:14.698Z,38.93
2019-04-03T14:31:19.077Z,35.80
2019-04-03T14:36:22.456Z,42.27
2019-04-03T14:41:26.352Z,43.57
2019-04-03T14:46:29.342Z,40.07
2019-04-03T14:51:32.709Z,42.27
2019-04-03T14:56:36.039Z,46.30
2019-04-03T15:01:39.734Z,39.10
2019-04-03T15:06:44.217Z,43.30
2019-04-03T15:11:48.198Z,44.90
2019-04-03T15:16:51.107Z,42.60
2019-04-03T15:21:56.690Z,37.40
2019-04-03T15:26:59.067Z,41.00
2019-04-03T15:32:02.265Z,36.97
2019-04-03T15:37:07.523Z,39.83
2019-04-03T15:42:11.062Z,34.50
2019-04-03T15:47:20.495Z,36.87
2019-04-03T15:52:20.668Z,40.77
2019-04-03T15:57:24.564Z,37.03
2019-04-03T16:02:29.092Z,40.30
2019-04-03T16:07:33.556Z,37.90
2019-04-03T16:12:41.489Z,50.83
2019-04-03T16:17:43.201Z,31.23
2019-04-03T16:22:47.075Z,47.07
2019-04-03T16:27:50.966Z,41.30
2019-04-03T16:32:57.042Z,37.67
2019-04-03T16:38:00.284Z,51.00
2019-04-03T16:43:10.369Z,51.23
2019-04-03T16:48:15.910Z,51.23
2019-04-03T16:53:20.433Z,41.80
2019-04-03T16:58:26.458Z,50.70
2019-04-03T17:03:33.244Z,45.43
2019-04-03T17:08:36.509Z,53.03
2019-04-03T17:13:41.091Z,51.70
2019-04-03T17:18:47.132Z,46.97
2019-04-03T17:23:52.401Z,41.43
2019-04-03T17:29:05.202Z,49.60
2019-04-03T17:34:08.394Z,46.17
2019-04-03T17:39:14.537Z,49.47
2019-04-03T17:44:22.184Z,49.33
2019-04-03T17:49:30.526Z,52.03
2019-04-03T17:54:34.013Z,50.63
2019-04-03T17:59:37.289Z,50.03
2019-04-03T18:04:40.532Z,43.93
2019-04-03T18:09:43.366Z,49.90
2019-04-03T18:14:52.160Z,50.93
2019-04-03T18:19:58.289Z,46.70
2019-04-03T18:25:02.114Z,50.53
2019-04-03T18:30:06.752Z,52.83
2019-04-03T18:35:10.972Z,46.83
2019-04-03T18:40:15.329Z,48.37
2019-04-03T18:45:29.971Z,50.77
2019-04-03T18:50:35.136Z,52.50
2019-04-03T18:55:40.262Z,56.43
2019-04-03T19:00:44.263Z,47.50
2019-04-03T19:05:47.732Z,52.77
2019-04-03T19:11:01.531Z,48.10
2019-04-03T19:15:58.323Z,49.70
2019-04-03T19:26:36.205Z,51.70
2019-04-03T19:31:40.784Z,56.07
2019-04-03T19:36:45.291Z,50.73
2019-04-03T19:41:49.121Z,56.53
2019-04-03T19:47:05.141Z,56.87
2019-04-03T19:52:11.617Z,55.20
2019-04-03T19:57:19.817Z,62.93
2019-04-03T20:02:23.513Z,63.73
2019-04-03T20:07:27.332Z,63.73
2019-04-03T20:12:29.979Z,61.60
2019-04-03T20:17:34.747Z,58.07
2019-04-03T20:22:42.462Z,57.67
2019-04-03T20:27:47.622Z,62.13
2019-04-03T20:32:52.435Z,64.37
2019-04-03T20:37:57.019Z,61.10
2019-04-03T20:43:01.311Z,66.30
2019-04-03T20:48:04.444Z,65.43
2019-04-03T20:53:07.478Z,69.63
2019-04-03T20:58:10.606Z,62.23
2019-04-03T21:03:13.589Z,68.77
2019-04-03T21:08:17.161Z,73.70
2019-04-03T21:13:20.446Z,67.73
2019-04-03T21:18:23.867Z,66.27
2019-04-03T21:23:27.529Z,76.20
2019-04-03T21:28:30.876Z,72.70
2019-04-03T21:33:33.995Z,76.77
2019-04-03T21:38:37.691Z,69.17
2019-04-03T21:43:40.857Z,72.43
2019-04-03T21:48:44.753Z,67.23
2019-04-03T21:53:48.608Z,75.37
2019-04-03T21:58:51.721Z,70.87
2019-04-03T22:03:55.193Z,65.67
2019-04-03T22:09:00.457Z,73.83
2019-04-03T22:14:04.365Z,73.47
2019-04-03T22:19:07.592Z,73.20
2019-04-03T22:24:11.156Z,74.23
2019-04-03T22:29:14.649Z,80.10
2019-04-03T22:34:17.262Z,72.07
2019-04-03T22:39:20.464Z,86.10
2019-04-03T22:44:23.877Z,74.67
2019-04-03T22:49:26.679Z,80.07
2019-04-03T22:54:30.024Z,72.00
2019-04-03T22:59:33.613Z,81.60
2019-04-03T23:04:36.622Z,84.10
2019-04-03T23:09:39.924Z,85.23
2019-04-03T23:14:43.441Z,83.30
2019-04-03T23:19:46.356Z,84.50
2019-04-03T23:24:49.885Z,89.30
2019-04-03T23:29:52.829Z,89.77
2019-04-03T23:34:56.381Z,93.47
2019-04-03T23:40:01.026Z,83.30
2019-04-03T23:45:05.694Z,76.77
2019-04-03T23:50:08.220Z,94.50
2019-04-03T23:55:11.499Z,80.43
